Time;durP1;ratioP1;P1;durP2;ratioP2;P2;SDS_P1;SDS_P2;PMS_P1;PMS_P2;Temp;Humidity;BMP_temperature;BMP_pressure;BME280_temperature;BME280_humidity;BME280_pressure;Samples;Min_cycle;Max_cycle;Signal;HPM_P1;HPM_P2
2022/04/17 00:00:20;;;;;;;34.53;29.95;;;27.70;92.70;;;;;;1854229;75;21159;-82
2022/04/17 00:02:51;;;;;;;35.73;28.17;;;27.70;92.70;;;;;;1867695;75;21193;-82
2022/04/17 00:05:25;;;;;;;35.98;30.02;;;27.70;92.60;;;;;;1889307;75;21138;-81
2022/04/17 00:07:58;;;;;;;37.05;30.45;;;27.70;92.70;;;;;;1862060;75;21194;-81
2022/04/17 00:10:29;;;;;;;34.53;29.98;;;27.70;92.90;;;;;;1850079;75;21190;-81
2022/04/17 00:13:00;;;;;;;39.67;32.73;;;27.70;92.80;;;;;;1867833;75;21188;-81
2022/04/17 00:15:32;;;;;;;32.23;28.70;;;27.70;92.70;;;;;;1871289;75;21270;-81
2022/04/17 00:18:03;;;;;;;37.05;28.65;;;27.80;92.40;;;;;;1894340;75;21084;-82
2022/04/17 00:20:35;;;;;;;39.78;30.27;;;27.80;92.60;;;;;;1851900;76;21146;-83
2022/04/17 00:23:06;;;;;;;38.83;30.85;;;27.80;92.70;;;;;;1862650;75;21569;-82
2022/04/17 00:25:39;;;;;;;35.63;28.05;;;27.80;92.70;;;;;;1830181;76;21112;-80
2022/04/17 00:28:13;;;;;;;35.00;28.38;;;27.90;92.60;;;;;;1840350;76;21166;-81
2022/04/17 00:30:45;;;;;;;30.88;27.02;;;27.90;92.60;;;;;;1827101;78;21086;-82
2022/04/17 00:33:17;;;;;;;34.85;27.27;;;27.90;92.60;;;;;;1828114;76;21232;-82
2022/04/17 00:35:47;;;;;;;32.03;28.02;;;27.90;92.60;;;;;;1865898;75;21166;-81
2022/04/17 00:38:18;;;;;;;41.15;29.18;;;27.90;92.70;;;;;;1865199;77;21084;-82
2022/04/17 00:40:56;;;;;;;36.25;28.85;;;27.90;92.60;;;;;;1863997;77;21080;-82
2022/04/17 00:43:32;;;;;;;34.18;30.35;;;27.90;92.80;;;;;;1864959;75;21197;-82
2022/04/17 00:46:01;;;;;;;33.18;29.65;;;27.90;92.70;;;;;;1869186;75;21111;-82
2022/04/17 00:48:39;;;;;;;31.70;28.15;;;28.00;92.60;;;;;;1877550;75;21161;-81
2022/04/17 00:51:10;;;;;;;32.88;28.07;;;28.00;92.50;;;;;;1889607;75;21091;-82
2022/04/17 00:53:42;;;;;;;33.75;28.25;;;28.10;92.50;;;;;;1879155;75;21142;-83
2022/04/17 00:56:13;;;;;;;32.23;27.10;;;28.10;92.60;;;;;;1859291;77;21083;-81
2022/04/17 00:58:47;;;;;;;33.02;26.42;;;28.10;92.40;;;;;;1870559;74;21084;-82
2022/04/17 01:01:18;;;;;;;32.03;26.93;;;28.10;92.60;;;;;;1884245;74;21181;-82
2022/04/17 01:03:50;;;;;;;29.95;26.75;;;28.10;92.40;;;;;;1872367;76;21154;-83
2022/04/17 01:06:22;;;;;;;33.48;27.52;;;28.20;92.60;;;;;;1891388;75;21235;-82
2022/04/17 01:08:53;;;;;;;30.82;26.82;;;28.10;92.50;;;;;;1869583;74;21075;-82
2022/04/17 01:11:24;;;;;;;31.07;27.67;;;28.10;92.50;;;;;;1888949;74;21055;-82
2022/04/17 01:13:55;;;;;;;38.02;28.55;;;28.10;92.50;;;;;;1883931;74;21559;-81
2022/04/17 01:16:28;;;;;;;36.33;28.77;;;28.20;92.50;;;;;;1871324;76;21148;-82
2022/04/17 01:19:04;;;;;;;33.95;28.57;;;28.20;92.40;;;;;;1865308;74;21203;-82
2022/04/17 01:21:34;;;;;;;31.07;26.52;;;28.20;92.50;;;;;;1879384;74;21091;-81
2022/04/17 01:29:15;;;;;;;34.18;27.55;;;28.30;92.50;;;;;;1887522;74;21599;-82
2022/04/17 01:31:47;;;;;;;31.02;27.37;;;28.30;92.40;;;;;;1879573;74;21145;-83
2022/04/17 01:34:19;;;;;;;31.95;26.85;;;28.30;92.60;;;;;;1877738;74;21083;-82
2022/04/17 01:36:51;;;;;;;34.27;28.75;;;28.20;92.50;;;;;;1864933;74;21083;-80
2022/04/17 01:39:22;;;;;;;32.55;27.85;;;28.30;92.40;;;;;;1868193;74;21078;-82
2022/04/17 01:41:54;;;;;;;29.70;26.52;;;28.30;92.30;;;;;;1874344;74;21063;-82
2022/04/17 01:44:28;;;;;;;31.55;26.93;;;28.40;92.20;;;;;;1877956;74;21087;-83
2022/04/17 01:47:01;;;;;;;31.62;28.05;;;28.50;92.30;;;;;;1880092;75;21078;-82
2022/04/17 01:49:33;;;;;;;30.68;27.37;;;28.50;92.30;;;;;;1889891;74;21067;-83
2022/04/17 01:52:05;;;;;;;34.18;28.02;;;28.60;92.20;;;;;;1887509;74;21094;-82
2022/04/17 01:54:37;;;;;;;29.80;26.05;;;28.60;92.20;;;;;;1875457;74;21195;-82
2022/04/17 01:57:08;;;;;;;31.27;27.37;;;28.60;92.10;;;;;;1888086;74;21150;-82
2022/04/17 01:59:39;;;;;;;29.35;26.10;;;28.70;92.00;;;;;;1888845;74;21221;-82
2022/04/17 02:02:10;;;;;;;29.30;25.37;;;28.70;91.80;;;;;;1902289;74;21142;-80
2022/04/17 02:04:42;;;;;;;32.50;27.70;;;28.80;92.00;;;;;;1877299;74;21063;-82
2022/04/17 02:07:14;;;;;;;32.88;26.50;;;28.80;91.90;;;;;;1882139;74;21154;-80
2022/04/17 02:09:45;;;;;;;32.00;25.02;;;28.80;91.80;;;;;;1888870;74;21291;-80
2022/04/17 02:12:15;;;;;;;30.12;25.72;;;28.90;91.80;;;;;;1910191;74;21080;-81
2022/04/17 02:14:47;;;;;;;30.55;26.55;;;29.00;91.60;;;;;;1891355;74;21047;-81
2022/04/17 02:17:20;;;;;;;29.10;25.50;;;29.00;91.60;;;;;;1913686;74;21209;-81
2022/04/17 02:19:51;;;;;;;31.02;26.33;;;29.00;91.50;;;;;;1882389;74;21086;-82
2022/04/17 02:22:24;;;;;;;30.95;26.52;;;29.10;91.40;;;;;;1823195;77;21163;-83
2022/04/17 02:24:55;;;;;;;29.45;26.23;;;29.20;91.00;;;;;;1846208;77;21099;-82
2022/04/17 02:27:26;;;;;;;28.40;25.35;;;29.20;91.30;;;;;;1875747;74;21095;-82
2022/04/17 02:30:00;;;;;;;31.48;26.48;;;29.30;91.20;;;;;;1880986;74;21142;-83
2022/04/17 02:32:31;;;;;;;29.40;26.30;;;29.40;91.00;;;;;;1870757;74;21236;-80
2022/04/17 02:35:02;;;;;;;33.38;26.82;;;29.40;91.00;;;;;;1820222;77;21258;-82
2022/04/17 02:37:34;;;;;;;30.37;26.70;;;29.50;90.80;;;;;;1830373;76;21229;-82
2022/04/17 02:40:07;;;;;;;29.98;26.73;;;29.60;90.80;;;;;;1853272;76;21154;-82
2022/04/17 02:42:42;;;;;;;35.60;25.97;;;29.70;90.60;;;;;;1880123;74;21165;-81
2022/04/17 02:45:17;;;;;;;35.55;27.52;;;29.70;90.50;;;;;;1892764;74;21660;-82
2022/04/17 02:47:51;;;;;;;30.27;26.82;;;29.70;90.40;;;;;;1882397;74;21826;-82
2022/04/17 02:50:25;;;;;;;31.65;27.40;;;29.80;90.40;;;;;;1876905;76;21079;-81
2022/04/17 02:52:57;;;;;;;30.65;27.35;;;30.00;90.30;;;;;;1859041;76;21126;-82
2022/04/17 02:55:28;;;;;;;31.40;26.33;;;30.00;90.10;;;;;;1842942;76;21125;-82
2022/04/17 02:57:59;;;;;;;34.03;26.40;;;30.00;90.00;;;;;;1889869;74;21214;-83
2022/04/17 03:00:31;;;;;;;28.77;25.60;;;29.90;90.00;;;;;;1842823;76;21166;-83
2022/04/17 03:05:36;;;;;;;29.00;25.77;;;29.90;89.70;;;;;;1878915;74;21209;-82
2022/04/17 03:08:09;;;;;;;29.32;25.75;;;30.00;89.70;;;;;;1891438;74;21054;-83
2022/04/17 03:10:42;;;;;;;32.28;26.68;;;30.00;89.80;;;;;;1862436;74;21144;-81
2022/04/17 03:13:13;;;;;;;30.00;26.45;;;30.20;89.80;;;;;;1825774;77;21273;-82
2022/04/17 03:15:44;;;;;;;31.62;26.70;;;30.30;89.00;;;;;;1895378;75;21137;-83
2022/04/17 03:18:15;;;;;;;29.80;25.20;;;30.40;88.70;;;;;;1900648;74;21052;-82
2022/04/17 03:20:47;;;;;;;32.83;26.87;;;30.50;88.80;;;;;;1883318;74;21093;-82
2022/04/17 03:23:18;;;;;;;28.65;25.23;;;30.50;87.80;;;;;;1892383;74;21317;-83
2022/04/17 03:25:49;;;;;;;29.72;26.48;;;30.50;88.00;;;;;;1884254;74;21091;-83
2022/04/17 03:28:20;;;;;;;29.07;25.37;;;30.50;87.70;;;;;;1902929;74;21083;-81
2022/04/17 03:30:51;;;;;;;29.42;25.77;;;30.60;87.90;;;;;;1851085;76;21196;-82
2022/04/17 03:33:22;;;;;;;27.80;24.63;;;30.60;87.60;;;;;;1839264;77;21083;-82
2022/04/17 03:35:53;;;;;;;29.50;25.32;;;30.60;87.60;;;;;;1849931;76;21130;-82
2022/04/17 03:38:24;;;;;;;28.20;25.25;;;30.70;87.00;;;;;;1792999;77;21148;-83
2022/04/17 03:40:55;;;;;;;28.15;24.67;;;30.90;86.90;;;;;;1827497;77;21107;-83
2022/04/17 03:43:26;;;;;;;28.30;25.40;;;31.00;86.20;;;;;;1876469;74;21169;-83
2022/04/17 03:45:57;;;;;;;31.27;25.45;;;31.20;85.40;;;;;;1873566;74;21519;-83
2022/04/17 03:48:28;;;;;;;28.35;25.32;;;31.30;84.90;;;;;;1812774;77;21250;-82
2022/04/17 03:50:59;;;;;;;30.68;25.15;;;31.40;85.10;;;;;;1844074;76;21091;-81
2022/04/17 03:53:37;;;;;;;31.68;25.80;;;31.50;84.80;;;;;;1831820;76;21059;-83
2022/04/17 03:56:10;;;;;;;28.15;25.08;;;31.50;84.60;;;;;;1887399;74;21080;-84
2022/04/17 03:58:41;;;;;;;30.00;26.05;;;31.60;87.40;;;;;;1875114;74;21071;-83
2022/04/17 04:01:12;;;;;;;28.87;25.97;;;31.60;88.10;;;;;;1878065;75;21102;-82
2022/04/17 04:03:43;;;;;;;28.47;25.27;;;31.60;88.10;;;;;;1869470;75;21200;-83
2022/04/17 04:06:14;;;;;;;29.40;24.75;;;31.50;88.50;;;;;;1884449;75;21134;-82
2022/04/17 04:08:45;;;;;;;34.75;25.02;;;31.50;87.40;;;;;;1882060;75;21087;-82
2022/04/17 04:11:18;;;;;;;32.45;25.45;;;31.60;87.40;;;;;;1850808;77;21161;-81
2022/04/17 04:13:48;;;;;;;27.67;24.47;;;31.50;85.00;;;;;;1873194;76;21057;-82
2022/04/17 04:16:19;;;;;;;26.27;23.10;;;31.50;83.70;;;;;;1831647;77;21124;-82
2022/04/17 04:18:50;;;;;;;26.00;23.40;;;31.60;82.80;;;;;;1882788;74;21152;-83
2022/04/17 04:21:21;;;;;;;27.77;24.77;;;31.70;82.70;;;;;;1851823;76;21142;-82
2022/04/17 04:23:52;;;;;;;28.40;24.47;;;31.70;83.00;;;;;;1885606;74;21137;-81
2022/04/17 04:26:23;;;;;;;29.35;24.43;;;31.70;82.80;;;;;;1803926;78;21111;-83
2022/04/17 04:28:56;;;;;;;27.45;24.52;;;31.80;82.10;;;;;;1839257;76;21122;-82
2022/04/17 04:31:27;;;;;;;29.32;23.87;;;31.80;82.40;;;;;;1885718;75;21263;-81
2022/04/17 04:33:58;;;;;;;27.58;24.35;;;31.80;82.20;;;;;;1850829;76;21211;-82
2022/04/17 04:36:32;;;;;;;27.27;23.32;;;31.90;82.40;;;;;;1890819;74;21050;-82
2022/04/17 04:39:03;;;;;;;26.45;23.42;;;31.90;81.60;;;;;;1875976;75;21133;-83
2022/04/17 04:41:34;;;;;;;26.90;24.02;;;31.90;81.00;;;;;;1861510;75;21199;-82
2022/04/17 04:44:05;;;;;;;27.60;24.72;;;31.90;81.40;;;;;;1817270;78;21102;-82
2022/04/17 04:46:36;;;;;;;28.10;24.55;;;31.90;82.10;;;;;;1889923;74;21224;-81
2022/04/17 04:51:41;;;;;;;27.10;23.38;;;31.80;82.50;;;;;;1868468;75;21875;-82
2022/04/17 04:54:11;;;;;;;29.05;23.47;;;31.70;82.40;;;;;;1895895;74;21149;-81
2022/04/17 04:56:42;;;;;;;26.23;23.50;;;31.80;82.30;;;;;;1801369;78;21106;-82
2022/04/17 04:59:13;;;;;;;26.37;23.55;;;31.90;79.90;;;;;;1881554;74;21173;-81
2022/04/17 05:01:43;;;;;;;25.90;22.35;;;;;;;;;;1877318;75;21134;-81
2022/04/17 05:04:17;;;;;;;24.05;21.55;;;32.10;97.00;;;;;;1889799;75;21181;-83
2022/04/17 05:06:48;;;;;;;25.30;22.70;;;32.60;83.90;;;;;;1881586;75;21572;-82
2022/04/17 05:09:21;;;;;;;25.12;22.37;;;;;;;;;;1888844;75;21146;-84
2022/04/17 05:11:52;;;;;;;25.40;22.58;;;;;;;;;;1892255;75;21139;-82
2022/04/17 05:14:29;;;;;;;24.80;21.35;;;;;;;;;;1883751;76;21528;-82
2022/04/17 05:16:57;;;;;;;26.85;22.13;;;;;;;;;;1879503;75;21138;-82
2022/04/17 05:19:32;;;;;;;25.97;22.25;;;;;;;;;;1877438;75;21166;-82
2022/04/17 05:22:06;;;;;;;23.10;20.68;;;;;;;;;;1870265;75;21194;-83
2022/04/17 05:24:35;;;;;;;22.48;20.08;;;32.90;86.80;;;;;;1890857;75;21130;-82
2022/04/17 05:27:06;;;;;;;23.02;19.62;;;32.80;80.10;;;;;;1879466;75;21139;-82
2022/04/17 05:29:37;;;;;;;22.95;20.55;;;32.90;82.00;;;;;;1886304;75;21058;-82
2022/04/17 05:32:09;;;;;;;22.73;19.95;;;32.90;84.40;;;;;;1878474;75;21134;-83
2022/04/17 05:34:41;;;;;;;23.65;21.25;;;32.90;83.70;;;;;;1844630;77;21145;-82
2022/04/17 05:37:12;;;;;;;24.25;20.57;;;32.90;84.60;;;;;;1871107;75;21086;-81
2022/04/17 05:39:43;;;;;;;24.12;20.68;;;33.00;84.40;;;;;;1875993;75;21083;-82
2022/04/17 05:42:15;;;;;;;21.68;19.40;;;33.00;85.10;;;;;;1874033;75;21129;-81
2022/04/17 05:44:49;;;;;;;19.30;17.17;;;33.20;82.90;;;;;;1896655;75;21211;-82
2022/04/17 05:47:19;;;;;;;21.82;19.40;;;;;;;;;;1877610;75;21148;-71
2022/04/17 05:49:52;;;;;;;28.98;19.73;;;33.30;76.10;;;;;;1875824;75;21185;-72
2022/04/17 05:52:26;;;;;;;19.35;17.27;;;33.50;68.70;;;;;;1885593;75;21050;-73
2022/04/17 05:55:00;;;;;;;22.00;18.15;;;33.50;66.50;;;;;;1884799;75;21221;-72
2022/04/17 05:57:33;;;;;;;18.57;16.67;;;33.70;64.50;;;;;;1848875;76;21062;-72
2022/04/17 06:00:09;;;;;;;19.80;17.30;;;33.70;61.80;;;;;;1866959;75;21100;-74
2022/04/17 06:02:39;;;;;;;19.27;17.37;;;33.80;60.50;;;;;;1874487;75;21780;-73
2022/04/17 06:05:11;;;;;;;19.73;16.97;;;33.90;61.30;;;;;;1860740;75;21169;-73
2022/04/17 06:07:43;;;;;;;22.87;17.45;;;34.10;60.30;;;;;;1878580;75;21240;-72
2022/04/17 06:10:15;;;;;;;19.40;17.25;;;34.10;59.80;;;;;;1869375;75;21072;-71
2022/04/17 06:12:46;;;;;;;20.02;17.82;;;34.20;59.50;;;;;;1882856;75;21090;-73
2022/04/17 06:15:17;;;;;;;19.92;17.85;;;34.20;60.10;;;;;;1904320;75;21634;-72
2022/04/17 06:17:48;;;;;;;19.82;16.15;;;34.30;60.20;;;;;;1875827;75;21173;-73
2022/04/17 06:20:19;;;;;;;19.32;17.35;;;34.30;58.50;;;;;;1864903;75;21088;-72
2022/04/17 06:22:51;;;;;;;22.13;18.23;;;34.30;59.40;;;;;;1913606;75;21629;-73
2022/04/17 06:25:21;;;;;;;20.00;17.98;;;34.30;61.90;;;;;;1866443;75;21061;-73
2022/04/17 06:27:55;;;;;;;20.12;17.95;;;34.30;61.00;;;;;;1862341;75;21520;-73
2022/04/17 06:30:27;;;;;;;20.50;18.45;;;34.30;61.00;;;;;;1853896;77;21131;-74
2022/04/17 06:33:00;;;;;;;24.77;18.98;;;34.30;62.30;;;;;;1860320;75;21055;-75
2022/04/17 06:35:31;;;;;;;21.60;19.30;;;34.40;61.70;;;;;;1873093;75;21111;-74
2022/04/17 06:38:05;;;;;;;24.77;18.70;;;34.40;62.40;;;;;;1864036;75;21143;-74
2022/04/17 06:40:36;;;;;;;21.85;18.55;;;34.50;62.10;;;;;;1851617;75;21104;-74
2022/04/17 06:43:09;;;;;;;25.08;19.65;;;34.50;62.50;;;;;;1859991;77;21637;-73
2022/04/17 06:45:42;;;;;;;25.55;20.05;;;34.60;62.00;;;;;;1857578;76;21071;-74
2022/04/17 06:48:15;;;;;;;21.80;19.35;;;34.50;63.50;;;;;;1851472;76;21214;-74
2022/04/17 06:50:48;;;;;;;21.35;19.10;;;34.40;63.10;;;;;;1851093;77;21606;-74
2022/04/17 06:53:20;;;;;;;23.30;19.25;;;34.40;62.50;;;;;;1907708;75;21119;-72
2022/04/17 06:55:54;;;;;;;22.02;19.15;;;34.30;63.00;;;;;;1872033;75;21208;-74
2022/04/17 06:58:25;;;;;;;22.00;19.65;;;34.20;63.30;;;;;;1848338;77;21488;-75
2022/04/17 07:00:55;;;;;;;22.25;20.02;;;34.10;63.70;;;;;;1868416;75;21095;-75
2022/04/17 07:03:28;;;;;;;23.57;20.68;;;34.10;64.10;;;;;;1822973;77;21644;-74
2022/04/17 07:06:00;;;;;;;21.27;19.12;;;34.10;63.80;;;;;;1835548;76;21597;-74
2022/04/17 07:08:31;;;;;;;25.48;21.50;;;34.20;63.90;;;;;;1830501;77;21094;-74
2022/04/17 07:11:04;;;;;;;23.87;21.45;;;34.20;66.60;;;;;;1827589;78;21106;-73
2022/04/17 07:13:35;;;;;;;26.48;22.13;;;34.30;67.70;;;;;;1837600;77;21572;-74
2022/04/17 07:16:08;;;;;;;26.75;21.30;;;34.30;68.80;;;;;;1858959;76;21149;-72
2022/04/17 07:18:39;;;;;;;25.57;22.37;;;34.20;68.30;;;;;;1854441;77;21096;-73
2022/04/17 07:21:13;;;;;;;24.02;21.50;;;34.20;67.10;;;;;;1858447;77;21083;-71
2022/04/17 07:23:46;;;;;;;25.60;22.80;;;34.10;67.80;;;;;;1847279;77;21146;-72
2022/04/17 07:26:16;;;;;;;25.52;22.80;;;34.10;68.60;;;;;;1833872;77;21068;-71
2022/04/17 07:28:48;;;;;;;27.30;22.40;;;34.00;69.30;;;;;;1858563;77;21684;-74
2022/04/17 07:31:21;;;;;;;27.52;23.00;;;33.90;69.00;;;;;;1856439;76;21240;-73
2022/04/17 07:33:52;;;;;;;28.05;23.07;;;33.80;68.50;;;;;;1844070;77;21083;-72
2022/04/17 07:36:23;;;;;;;28.02;23.12;;;33.80;69.00;;;;;;1830780;77;21614;-71
2022/04/17 07:38:55;;;;;;;25.50;22.80;;;33.80;68.70;;;;;;1832991;77;21657;-71
2022/04/17 07:41:26;;;;;;;24.75;22.02;;;33.80;68.30;;;;;;1852907;77;21110;-73
2022/04/17 07:43:57;;;;;;;27.17;23.67;;;33.80;68.60;;;;;;1847751;76;21185;-73
2022/04/17 07:46:30;;;;;;;25.27;22.80;;;33.80;68.90;;;;;;1827371;77;21559;-73
2022/04/17 07:49:02;;;;;;;27.48;24.15;;;33.80;68.60;;;;;;1857754;77;21542;-72
2022/04/17 07:51:34;;;;;;;26.85;24.07;;;33.90;69.00;;;;;;1867006;77;21098;-72
2022/04/17 07:54:05;;;;;;;26.48;23.45;;;33.80;68.30;;;;;;1778800;80;21103;-73
2022/04/17 07:56:37;;;;;;;25.60;22.73;;;33.80;68.60;;;;;;1859859;76;21079;-74
2022/04/17 07:59:08;;;;;;;59.18;26.12;;;33.70;68.60;;;;;;1851979;77;21129;-74
2022/04/17 08:01:39;;;;;;;29.35;21.87;;;33.70;68.20;;;;;;1854472;76;21158;-75
2022/04/17 08:04:12;;;;;;;35.17;24.00;;;33.70;67.60;;;;;;1832148;76;21106;-74
2022/04/17 08:06:44;;;;;;;28.70;22.77;;;33.90;68.10;;;;;;1845238;77;21622;-73
2022/04/17 08:09:19;;;;;;;31.50;23.33;;;33.90;68.40;;;;;;1848629;76;21162;-74
2022/04/17 08:11:52;;;;;;;26.93;22.82;;;34.00;66.90;;;;;;1854890;77;21668;-74
2022/04/17 08:14:23;;;;;;;25.50;22.87;;;33.90;66.70;;;;;;1836064;77;21071;-74
2022/04/17 08:16:54;;;;;;;26.73;23.85;;;33.90;67.30;;;;;;1843178;77;21102;-74
2022/04/17 08:19:25;;;;;;;24.85;22.25;;;34.00;66.80;;;;;;1852002;76;21533;-74
2022/04/17 08:21:55;;;;;;;26.15;22.85;;;34.00;66.60;;;;;;1850985;76;21178;-74
2022/04/17 08:24:29;;;;;;;25.85;23.10;;;34.00;66.70;;;;;;1839736;77;21744;-73
2022/04/17 08:27:00;;;;;;;25.45;22.75;;;34.00;66.70;;;;;;1843056;76;21213;-72
2022/04/17 08:29:32;;;;;;;28.05;23.30;;;34.00;67.70;;;;;;1820994;77;21170;-73
2022/04/17 08:32:04;;;;;;;25.45;21.82;;;34.00;66.50;;;;;;1829931;77;21145;-73
2022/04/17 08:34:34;;;;;;;26.27;20.62;;;34.00;65.20;;;;;;1834492;76;21145;-73
2022/04/17 08:37:06;;;;;;;22.75;20.50;;;34.00;63.00;;;;;;1825125;77;21673;-73
2022/04/17 08:39:37;;;;;;;24.52;19.80;;;34.00;62.80;;;;;;1853375;76;21498;-74
2022/04/17 08:42:11;;;;;;;25.85;23.02;;;34.10;63.60;;;;;;1837606;76;21108;-73
2022/04/17 08:44:42;;;;;;;26.75;23.75;;;34.10;64.70;;;;;;1798021;78;21163;-74
2022/04/17 08:47:13;;;;;;;26.12;23.00;;;34.20;64.80;;;;;;1838125;78;21075;-73
2022/04/17 08:49:45;;;;;;;26.80;23.92;;;34.10;64.60;;;;;;1841406;77;21236;-73
2022/04/17 08:52:17;;;;;;;27.60;24.15;;;34.10;64.90;;;;;;1820212;77;21169;-73
2022/04/17 08:54:50;;;;;;;25.97;23.32;;;34.00;64.80;;;;;;1837087;77;21110;-72
2022/04/17 08:57:22;;;;;;;27.42;23.55;;;34.00;63.80;;;;;;1841892;76;22014;-73
2022/04/17 08:59:55;;;;;;;24.60;22.00;;;33.90;63.80;;;;;;1849203;77;21535;-73
2022/04/17 09:02:26;;;;;;;25.57;22.77;;;34.00;63.20;;;;;;1836584;76;21161;-73
2022/04/17 09:05:00;;;;;;;25.00;22.20;;;33.90;62.50;;;;;;1864958;75;21068;-75
2022/04/17 09:07:35;;;;;;;25.80;23.10;;;33.90;63.20;;;;;;1854004;75;21548;-74
2022/04/17 09:10:07;;;;;;;26.17;23.40;;;33.90;63.20;;;;;;1858452;77;21090;-73
2022/04/17 09:12:39;;;;;;;24.20;21.60;;;33.90;62.80;;;;;;1853245;75;21135;-72
2022/04/17 09:15:10;;;;;;;24.47;21.75;;;33.90;62.80;;;;;;1868887;75;21076;-73
2022/04/17 09:17:42;;;;;;;25.55;21.95;;;33.90;63.70;;;;;;1881904;75;21707;-73
2022/04/17 09:20:15;;;;;;;24.32;21.17;;;33.90;63.10;;;;;;1874097;76;21152;-75
2022/04/17 09:22:48;;;;;;;23.47;20.27;;;33.80;63.00;;;;;;1867472;75;21623;-74
2022/04/17 09:25:22;;;;;;;25.60;21.20;;;33.80;62.50;;;;;;1842538;75;21593;-73
2022/04/17 09:27:55;;;;;;;24.20;20.90;;;33.80;63.20;;;;;;1859163;76;21545;-74
2022/04/17 09:30:28;;;;;;;22.73;20.37;;;33.80;62.30;;;;;;1882772;76;21561;-74
2022/04/17 09:33:01;;;;;;;24.70;21.80;;;33.80;62.50;;;;;;1858811;75;21099;-73
2022/04/17 09:35:33;;;;;;;22.95;20.60;;;33.80;62.40;;;;;;1872751;75;21090;-74
2022/04/17 09:38:06;;;;;;;23.27;20.77;;;33.80;62.50;;;;;;1905061;75;21126;-72
2022/04/17 09:40:38;;;;;;;23.55;20.35;;;33.70;62.90;;;;;;1857757;75;21141;-72
2022/04/17 09:43:13;;;;;;;23.52;21.02;;;33.70;63.00;;;;;;1853858;77;21091;-73
2022/04/17 09:45:47;;;;;;;25.35;21.05;;;33.70;62.80;;;;;;1882601;75;21086;-72
2022/04/17 09:48:20;;;;;;;24.67;21.33;;;33.70;62.90;;;;;;1866869;75;21622;-73
2022/04/17 09:50:54;;;;;;;24.10;20.20;;;33.70;63.00;;;;;;1869788;76;21778;-73
2022/04/17 09:53:30;;;;;;;22.42;20.12;;;33.70;64.60;;;;;;1838596;77;21593;-73
2022/04/17 09:56:03;;;;;;;22.75;20.17;;;33.70;63.40;;;;;;1842136;76;21642;-73
2022/04/17 09:58:36;;;;;;;23.30;19.17;;;33.60;63.60;;;;;;1886054;75;21584;-73
2022/04/17 10:01:09;;;;;;;22.50;20.10;;;33.60;63.40;;;;;;1877949;75;21083;-73
2022/04/17 10:03:42;;;;;;;22.70;19.90;;;33.60;63.30;;;;;;1916085;75;21146;-73
2022/04/17 10:06:14;;;;;;;24.75;20.70;;;33.60;63.30;;;;;;1893391;75;21175;-72
2022/04/17 10:08:45;;;;;;;23.75;20.52;;;33.60;63.90;;;;;;1873185;75;21060;-75
2022/04/17 10:11:16;;;;;;;23.35;20.92;;;33.60;64.00;;;;;;1875869;75;21240;-74
2022/04/17 10:13:52;;;;;;;23.12;19.73;;;33.50;67.00;;;;;;1876754;74;21198;-75
2022/04/17 10:16:24;;;;;;;24.60;20.57;;;33.50;69.10;;;;;;1848599;76;21083;-87
2022/04/17 10:19:00;;;;;;;24.02;21.20;;;33.40;69.40;;;;;;1832856;77;21175;-85
2022/04/17 10:21:33;;;;;;;23.70;21.17;;;33.30;70.30;;;;;;1887685;75;21146;-86
2022/04/17 10:24:05;;;;;;;24.10;21.35;;;33.20;71.10;;;;;;1812254;77;21083;-85
2022/04/17 10:26:40;;;;;;;22.10;19.65;;;33.20;71.10;;;;;;1884598;75;21207;-84
2022/04/17 10:29:14;;;;;;;23.42;20.92;;;33.10;71.40;;;;;;1826066;78;21099;-85
2022/04/17 10:31:47;;;;;;;22.70;20.30;;;33.00;72.30;;;;;;1884111;76;21120;-84
2022/04/17 10:34:20;;;;;;;22.42;20.02;;;32.90;72.60;;;;;;1884295;76;21085;-84
2022/04/17 10:36:54;;;;;;;22.80;20.40;;;32.80;73.20;;;;;;1888539;75;21075;-84
2022/04/17 10:39:27;;;;;;;23.67;21.17;;;32.80;73.80;;;;;;1890320;76;21095;-84
2022/04/17 10:41:59;;;;;;;24.77;22.25;;;32.80;74.10;;;;;;1889769;76;21161;-84
2022/04/17 10:44:37;;;;;;;23.10;20.50;;;32.70;73.90;;;;;;1869648;75;21158;-84
2022/04/17 10:47:05;;;;;;;23.00;20.52;;;32.70;74.40;;;;;;1852946;76;21107;-84
2022/04/17 10:49:40;;;;;;;24.00;21.57;;;32.60;74.90;;;;;;1886830;75;21219;-83
2022/04/17 10:52:13;;;;;;;22.32;19.95;;;32.60;75.50;;;;;;1914647;75;21080;-84
2022/04/17 10:54:47;;;;;;;24.72;21.07;;;32.50;75.70;;;;;;1911321;75;21088;-84
2022/04/17 10:57:20;;;;;;;23.22;20.72;;;32.50;76.40;;;;;;1877138;75;21149;-84
2022/04/17 10:59:52;;;;;;;23.20;20.72;;;32.40;76.30;;;;;;1886588;75;21161;-84
2022/04/17 11:02:27;;;;;;;23.57;21.17;;;32.40;76.70;;;;;;1753451;78;21099;-84
2022/04/17 11:04:59;;;;;;;23.75;20.43;;;;;;;;;;1889104;75;21175;-83
2022/04/17 11:07:31;;;;;;;22.93;20.52;;;;;;;;;;1900327;75;21122;-83
2022/04/17 11:10:02;;;;;;;23.85;20.90;;;;;;;;;;1918081;74;21076;-82
2022/04/17 11:12:36;;;;;;;27.40;20.85;;;32.40;76.20;;;;;;1926254;74;21051;-84
2022/04/17 11:15:09;;;;;;;21.95;19.65;;;32.30;77.20;;;;;;1923155;74;21173;-83
2022/04/17 11:17:47;;;;;;;23.85;20.37;;;32.30;77.90;;;;;;1838514;78;21092;-85
2022/04/17 11:20:19;;;;;;;23.75;21.17;;;32.20;78.10;;;;;;1837665;78;21526;-85
2022/04/17 11:22:50;;;;;;;26.87;20.75;;;32.20;78.30;;;;;;1924371;74;21103;-84
2022/04/17 11:25:21;;;;;;;24.52;21.70;;;32.10;78.80;;;;;;1813973;78;21171;-84
2022/04/17 11:27:53;;;;;;;27.37;21.52;;;32.10;79.40;;;;;;1892636;75;21099;-84
2022/04/17 11:30:28;;;;;;;22.22;19.82;;;32.00;79.50;;;;;;1876347;74;21212;-84
2022/04/17 11:33:02;;;;;;;23.77;20.60;;;32.00;79.20;;;;;;1875542;75;21160;-84
2022/04/17 11:35:33;;;;;;;24.07;20.20;;;31.90;79.50;;;;;;1884388;75;21132;-85
2022/04/17 11:38:06;;;;;;;22.62;20.27;;;31.80;79.70;;;;;;1806657;78;21139;-84
2022/04/17 11:40:41;;;;;;;25.17;21.30;;;31.80;80.00;;;;;;1845174;77;21171;-84
2022/04/17 11:43:15;;;;;;;28.65;21.05;;;31.80;80.30;;;;;;1876971;75;21075;-84
2022/04/17 11:45:48;;;;;;;24.23;21.48;;;31.80;80.60;;;;;;1860036;76;21093;-84
2022/04/17 11:48:20;;;;;;;25.82;20.82;;;31.70;80.40;;;;;;1825083;78;21558;-84
2022/04/17 11:50:55;;;;;;;28.70;21.80;;;31.70;80.30;;;;;;1855247;76;21121;-83
2022/04/17 11:53:26;;;;;;;25.10;20.27;;;31.60;80.70;;;;;;1805757;77;21083;-83
2022/04/17 11:55:56;;;;;;;23.50;20.88;;;31.60;80.40;;;;;;1837509;78;21207;-83
2022/04/17 11:58:29;;;;;;;23.57;21.02;;;31.60;80.80;;;;;;1879905;75;21055;-81
2022/04/17 12:01:03;;;;;;;23.87;21.33;;;31.50;81.00;;;;;;1838119;77;21412;-81
2022/04/17 12:03:37;;;;;;;25.97;20.77;;;31.50;81.00;;;;;;1887006;75;21554;-81
2022/04/17 12:06:09;;;;;;;23.95;21.35;;;31.50;81.00;;;;;;1848861;76;21165;-81
2022/04/17 12:08:42;;;;;;;26.50;21.40;;;31.50;80.90;;;;;;1868955;75;21166;-80
2022/04/17 12:11:12;;;;;;;26.07;22.73;;;31.50;81.20;;;;;;1892325;76;21193;-80
2022/04/17 12:13:43;;;;;;;24.25;21.73;;;31.50;81.10;;;;;;1861490;76;21156;-81
2022/04/17 12:16:14;;;;;;;33.80;24.82;;;31.50;81.40;;;;;;1826255;77;21218;-81
2022/04/17 12:18:48;;;;;;;25.75;22.60;;;31.40;81.20;;;;;;1841700;76;21080;-80
2022/04/17 12:21:20;;;;;;;26.45;23.47;;;31.40;81.50;;;;;;1847323;76;21221;-81
2022/04/17 12:23:52;;;;;;;24.45;21.95;;;31.40;81.60;;;;;;1883715;75;21196;-80
2022/04/17 12:26:24;;;;;;;27.13;23.25;;;31.40;81.60;;;;;;1859007;75;21540;-81
2022/04/17 12:28:55;;;;;;;24.37;21.40;;;31.40;81.60;;;;;;1888675;74;21114;-80
2022/04/17 12:31:27;;;;;;;24.23;21.77;;;31.40;81.50;;;;;;1864525;75;21155;-81
2022/04/17 12:34:00;;;;;;;28.90;22.20;;;31.40;81.50;;;;;;1875037;75;21141;-81
2022/04/17 12:36:31;;;;;;;24.67;22.13;;;31.40;81.50;;;;;;1882586;75;21130;-81
2022/04/17 12:39:02;;;;;;;27.15;21.48;;;31.30;81.80;;;;;;1858390;77;21483;-79
2022/04/17 12:41:36;;;;;;;31.30;24.00;;;31.30;82.10;;;;;;1857877;75;21216;-81
2022/04/17 12:44:07;;;;;;;26.70;22.73;;;31.30;82.20;;;;;;1873662;74;21158;-82
2022/04/17 12:46:46;;;;;;;27.00;22.55;;;31.30;82.30;;;;;;1855596;75;21222;-81
2022/04/17 12:49:15;;;;;;;27.67;23.50;;;31.30;82.30;;;;;;1864713;75;21103;-81
2022/04/17 12:51:48;;;;;;;26.68;23.38;;;31.20;82.50;;;;;;1864551;76;21238;-81
2022/04/17 12:54:18;;;;;;;28.02;23.50;;;31.30;82.50;;;;;;1848803;77;21217;-80
2022/04/17 12:56:51;;;;;;;29.30;23.75;;;31.20;82.30;;;;;;1891339;75;21096;-81
2022/04/17 12:59:22;;;;;;;25.57;22.80;;;31.20;82.50;;;;;;1840346;76;21153;-80
2022/04/17 13:01:53;;;;;;;28.42;23.65;;;31.20;82.50;;;;;;1867719;75;21051;-80
2022/04/17 13:04:26;;;;;;;31.52;23.67;;;31.20;82.50;;;;;;1865199;75;21516;-81